• Join FlightAware (Why Join?)
  • Login
  • US Flag 
06:28PM EDT


 

Airport Tracker/Info


-or-


 

Live Flight TrackerFlight Track Log ✈ EGF3678 ✈ 09-May-2013 ✈ KDEN - KLAX

Flight Track Log - Related Links

Times and Time Zones

All times are in EDT time to prevent confusion due to time zone crossing. See the EGF3678 flight status page for this flight to view local times or setup timezone preferences in your user account.

Time Position Orientation Groundspeed Altitude Reporting Facility
EDT Latitude Longitude Course Direction KTS MPH feet Rate Location/Type
10:24PM 39.8333 -104.8167 237° Southwest 232 267 7,900  Level Denver TRACON
10:25PM 39.7162 -105.0849 247° West  Level FlightAware Approximate
10:25PM 39.8006 -104.9000 243° Southwest 274 315 9,700  Level Denver Center
10:26PM 39.6700 -105.2234 247° West  Level FlightAware Approximate
10:26PM 39.7667 -104.9981 246° West 295 339 11,900  Level Denver Center
10:27PM 39.6300 -105.3651 248° West  Level FlightAware Approximate
10:27PM 39.7200 -105.1342 246° West 334 384 13,800  Level Denver Center
10:28PM 39.5869 -105.5051 248° West  Level FlightAware Approximate
10:28PM 39.6744 -105.2669 246° West 372 428 15,400  Level Denver Center
10:29PM 39.5413 -105.6340 237° Southwest  Level FlightAware Approximate
10:29PM 39.6297 -105.3981 246° West 395 455 16,900  Level Denver Center
10:30PM 39.5800 -105.5422 246° West 407 468 18,400 1,680 Climbing Denver Center
10:31PM 39.5342 -105.6769 246° West 407 468 20,400 1,800 Climbing Denver Center
10:32PM 39.4967 -105.8156 251° West 407 468 22,200 1,740 Climbing Denver Center
10:33PM 39.4619 -105.9469 251° West 394 453 24,000 1,440 Climbing Denver Center
10:34PM 39.4222 -106.0869 250° West 408 470 25,200 1,140 Climbing Denver Center
10:35PM 39.3758 -106.2522 250° West 419 482 26,400 960 Climbing Denver Center
10:36PM 39.3358 -106.3942 250° West 434 499 27,300 900 Climbing Denver Center
10:37PM 39.2953 -106.5361 250° West 440 506 28,300 1,020 Climbing Denver Center
10:38PM 39.2469 -106.7025 249° West 442 509 29,400 1,020 Climbing Denver Center
10:39PM 39.1750 -106.8275 233° Southwest 451 519 30,400 960 Climbing Denver Center
10:40PM 39.0869 -106.9669 231° Southwest 449 517 31,500 960 Climbing Denver Center
10:41PM 39.0119 -107.0864 231° Southwest 448 516 32,500 1,020 Climbing Denver Center
10:42PM 38.9233 -107.2264 231° Southwest 450 518 33,600 1,020 Climbing Denver Center
10:43PM 38.8447 -107.3397 228° Southwest 447 514 34,600 780 Climbing Denver Center
10:44PM 38.7569 -107.4406 222° Southwest 444 511 35,300 600 Climbing Denver Center
10:45PM 38.6606 -107.5706 227° Southwest 449 517 35,900 300 Climbing Denver Center
10:46PM 38.5867 -107.6914 232° Southwest 451 519 36,000  Climbing Denver Center
10:47PM 38.4956 -107.8383 232° Southwest 467 537 36,000  Level Denver Center
10:48PM 38.4167 -107.9672 232° Southwest 477 549 36,000  Level Denver Center
10:49PM 38.3356 -108.0978 232° Southwest 485 558 36,000  Level Denver Center
10:50PM 38.2442 -108.2442 232° Southwest 477 549 36,000 60 Level Denver Center
10:52PM 38.1647 -108.3686 231° Southwest 474 545 36,200 480 Climbing Denver Center
10:53PM 38.0731 -108.5158 232° Southwest 472 543 37,100 780 Climbing Denver Center
10:54PM 37.9831 -108.6553 231° Southwest 456 525 38,000 420 Climbing Denver Center
10:55PM 37.8936 -108.7967 231° Southwest 458 527 38,000  Level Denver Center
10:56PM 37.8158 -108.9192 231° Southwest 463 533 38,100  Climbing Denver Center
10:57PM 37.7322 -109.1047 240° Southwest 472 543 38,000 -60 Descending Denver Center
10:58PM 37.6708 -109.2411 240° Southwest 470 541 38,000  Level Denver Center
10:59PM 37.6000 -109.4022 241° Southwest 470 541 38,000  Level Denver Center
11:00PM 37.5381 -109.5378 240° Southwest 470 541 38,000  Level Denver Center
11:01PM 37.4669 -109.6967 241° Southwest 467 537 38,000  Level Denver Center
11:02PM 37.4056 -109.8325 240° Southwest 468 539 38,000  Level Denver Center
11:03PM 37.3331 -109.9919 240° Southwest 471 542 38,000  Level Denver Center
11:04PM 37.2714 -110.1272 240° Southwest 468 539 38,000  Level Denver Center
11:05PM 37.2086 -110.2636 240° Southwest 470 541 38,000  Level Denver Center
11:06PM 37.1419 -110.4069 240° Southwest 474 545 38,000  Level Denver Center
11:07PM 37.0764 -110.5500 240° Southwest 475 547 38,000  Level Denver Center
11:08PM 37.0100 -110.6928 240° Southwest 475 547 38,000  Level Denver Center
11:09PM 36.9297 -110.8656 240° Southwest 478 550 38,000  Level Denver Center
11:10PM 36.8758 -110.9803 240° Southwest 477 549 38,000  Level Denver Center
11:11PM 36.7947 -111.1531 240° Southwest 481 554 38,000  Level Denver Center
11:12PM 36.7408 -111.2683 240° Southwest 480 552 38,000  Level Denver Center
11:13PM 36.6592 -111.4403 239° Southwest 479 551 38,000  Level Denver Center
11:14PM 36.6042 -111.5544 239° Southwest 480 552 38,000  Level Denver Center
11:16PM 36.5217 -111.7253 239° Southwest 480 552 38,000  Level Denver Center
11:17PM 36.4539 -111.8667 239° Southwest 477 549 38,000  Level Denver Center
11:18PM 36.3719 -112.0333 239° Southwest 468 539 38,000  Level Los Angeles Center
11:19PM 36.3050 -112.1722 239° Southwest 469 540 38,000  Level Los Angeles Center
11:20PM 36.2375 -112.3106 239° Southwest 469 540 38,000  Level Los Angeles Center
11:21PM 36.1703 -112.4472 239° Southwest 466 536 38,000  Level Los Angeles Center
11:22PM 36.1031 -112.5831 239° Southwest 463 533 38,000  Level Los Angeles Center
11:23PM 36.0225 -112.7467 239° Southwest 463 533 38,000  Level Los Angeles Center
11:24PM 35.9514 -112.8922 239° Southwest 464 534 38,000  Level Los Angeles Center
11:25PM 35.8839 -113.0256 238° Southwest 464 534 38,000  Level Los Angeles Center
11:26PM 35.8042 -113.1856 238° Southwest 461 531 38,000  Level Los Angeles Center
11:27PM 35.7378 -113.3203 239° Southwest 464 534 38,000  Level Los Angeles Center
11:28PM 35.6719 -113.4517 238° Southwest 460 529 38,000  Level Los Angeles Center
11:29PM 35.6072 -113.5819 239° Southwest 456 525 38,000  Level Los Angeles Center
11:30PM 35.5519 -113.7464 248° West 445 512 38,000  Level Los Angeles Center
11:31PM 35.5361 -113.8925 262° West 437 503 38,000  Level Los Angeles Center
11:32PM 35.4997 -114.0356 253° West 441 507 38,000  Level Los Angeles Center
11:33PM 35.4347 -114.1806 241° Southwest 457 526 38,000  Level Los Angeles Center
11:34PM 35.3742 -114.3211 242° Southwest 464 534 38,000  Level Los Angeles Center
11:36PM 35.3114 -114.4650 242° Southwest 473 544 38,000  Level Los Angeles Center
11:37PM 35.2361 -114.6375 242° Southwest 478 550 38,000  Level Los Angeles Center
11:38PM 35.1958 -114.8503 257° West 462 532 38,000  Level Los Angeles Center
11:39PM 35.2297 -115.0347 283° West 461 531 38,000  Level Los Angeles Center
11:40PM 35.2550 -115.1881 281° West 460 529 38,000 -360 Level Los Angeles Center
11:41PM 35.2317 -115.3408 259° West 463 533 37,300 -720 Descending Los Angeles Center
11:42PM 35.1600 -115.4719 236° Southwest 490 564 36,500 -900 Descending Los Angeles Center
11:43PM 35.0764 -115.6042 232° Southwest 491 565 35,500 -1,080 Descending Los Angeles Center
11:44PM 34.9772 -115.7617 232° Southwest 488 562 34,400 -1,080 Descending Los Angeles Center
11:45PM 34.8900 -115.8983 232° Southwest 501 577 33,400 -960 Descending Los Angeles Center
11:46PM 34.8200 -116.0061 232° Southwest 506 582 32,500 -1,020 Descending Los Angeles Center
11:47PM 34.7156 -116.1711 232° Southwest 511 588 31,300 -1,080 Descending Los Angeles Center
11:48PM 34.6400 -116.2911 233° Southwest 448 516 30,300 -1,020 Descending Los Angeles Center
11:49PM 34.5656 -116.4047 232° Southwest 432 497 29,300 -1,080 Descending Los Angeles Center
11:50PM 34.4789 -116.5389 232° Southwest 421 484 28,100 -1,080 Descending Los Angeles Center
11:52PM 34.4056 -116.6514 232° Southwest 423 487 27,100 -1,200 Descending Los Angeles Center
11:53PM 34.3325 -116.7636 232° Southwest 423 487 25,700 -1,680 Descending Los Angeles Center
11:54PM 34.2625 -116.8703 232° Southwest 409 471 23,700 -1,800 Descending Los Angeles Center
11:55PM 34.2089 -116.9511 231° Southwest 392 451 22,100 -1,980 Descending Los Angeles Center
11:56PM 34.1306 -117.0706 232° Southwest 378 435 19,700 -2,160 Descending Los Angeles Center
11:56PM 34.1000 -117.1333 240° Southwest 360 414 19,000 -720 Descending Southern California TRACON
11:57PM 34.0500 -117.2333 239° Southwest 353 406 18,700 -1,080 Descending Southern California TRACON
11:58PM 34.0333 -117.3500 260° West 335 386 16,900 -2,100 Descending Southern California TRACON
11:59PM 34.0333 -117.4500 270° West 319 367 14,500 -2,100 Descending Southern California TRACON
12:00AM 34.0167 -117.5500 259° West 315 362 12,700 -1,740 Descending Southern California TRACON
12:01AM 34.0167 -117.6500 270° West 321 369 11,000 -1,440 Descending Southern California TRACON
12:02AM 34.0000 -117.7500 259° West 275 316 9,900 -1,200 Descending Southern California TRACON
12:03AM 33.9833 -117.8500 259° West 278 320 8,700 -1,380 Descending Southern California TRACON
12:04AM 33.9833 -117.9333 270° West 277 319 7,200 -1,440 Descending Southern California TRACON
12:05AM 33.9667 -118.0333 259° West 261 300 5,900 -1,260 Descending Southern California TRACON
12:06AM 33.9667 -118.1000 270° West 245 282 4,700 -1,380 Descending Southern California TRACON
12:07AM 33.9578 -118.1778 262° West 245 282 3,400 -1,500 Descending Los Angeles Center